Time;durP1;ratioP1;P1;durP2;ratioP2;P2;SDS_P1;SDS_P2;PMS_P1;PMS_P2;Temp;Humidity;BMP_temperature;BMP_pressure;BME280_temperature;BME280_humidity;BME280_pressure;Samples;Min_cycle;Max_cycle;Signal;HPM_P1;HPM_P2
2023/06/23 00:01:42;;;;;;;49.67;39.83;;;;;;;;;;5094432;28;20850;-79
2023/06/23 00:04:11;;;;;;;41.83;37.20;;;;;;;;;;5097125;28;20467;-78
2023/06/23 00:06:40;;;;;;;73.27;40.40;;;;;;;;;;5098615;28;20463;-79
2023/06/23 00:09:13;;;;;;;45.43;35.37;;;;;;;;;;5098781;28;20502;-80
2023/06/23 00:11:40;;;;;;;52.10;33.23;;;;;;;;;;5098889;28;20459;-79
2023/06/23 00:14:07;;;;;;;45.13;28.77;;;;;;;;;;5098126;28;20522;-80
2023/06/23 00:16:36;;;;;;;57.10;29.10;;;;;;;;;;5098195;28;20481;-80
2023/06/23 00:19:03;;;;;;;71.47;32.20;;;;;;;;;;5098945;28;20491;-78
2023/06/23 00:21:30;;;;;;;45.73;26.03;;;;;;;;;;5098247;28;20469;-79
2023/06/23 00:23:58;;;;;;;41.77;27.77;;;;;;;;;;5099190;28;20400;-79
2023/06/23 00:26:25;;;;;;;31.10;27.80;;;;;;;;;;5097929;28;20925;-80
2023/06/23 00:28:52;;;;;;;28.20;25.17;;;;;;;;;;5098587;28;20416;-79
2023/06/23 00:31:19;;;;;;;31.40;28.63;;;;;;;;;;5098126;28;20459;-79
2023/06/23 00:33:47;;;;;;;44.60;27.10;;;;;;;;;;5098306;28;20423;-80
2023/06/23 00:36:14;;;;;;;28.53;25.53;;;;;;;;;;5098279;28;20431;-79
2023/06/23 00:38:42;;;;;;;31.57;23.43;;;;;;;;;;5098479;28;20473;-79
2023/06/23 00:41:11;;;;;;;24.33;21.73;;;;;;;;;;5098407;28;20504;-80
2023/06/23 00:43:38;;;;;;;23.30;19.83;;;;;;;;;;5099239;28;20452;-79
2023/06/23 00:46:08;;;;;;;36.70;20.17;;;;;;;;;;5098099;28;20565;-80
2023/06/23 00:48:35;;;;;;;22.60;20.33;;;;;;;;;;5097361;28;20460;-78
2023/06/23 00:51:02;;;;;;;23.23;21.40;;;;;;;;;;5097472;28;20468;-78
2023/06/23 00:53:29;;;;;;;24.03;21.93;;;;;;;;;;5098116;28;20419;-80
2023/06/23 00:55:56;;;;;;;22.73;21.27;;;;;;;;;;5098466;28;20442;-80
2023/06/23 00:58:25;;;;;;;25.13;22.63;;;;;;;;;;5098544;28;20467;-80
2023/06/23 01:00:52;;;;;;;26.83;24.60;;;;;;;;;;5097395;28;20463;-80
2023/06/23 01:03:19;;;;;;;26.37;24.27;;;;;;;;;;5097807;28;20423;-79
2023/06/23 01:05:48;;;;;;;25.67;23.47;;;;;;;;;;5097326;28;20419;-80
2023/06/23 01:08:22;;;;;;;26.17;23.63;;;;;;;;;;5097279;28;20423;-80
2023/06/23 01:10:53;;;;;;;30.10;25.47;;;;;;;;;;5096627;28;20489;-78
2023/06/23 01:13:23;;;;;;;30.93;27.70;;;;;;;;;;5097913;28;20502;-80
2023/06/23 01:15:53;;;;;;;35.23;26.87;;;;;;;;;;5097363;28;20452;-79
2023/06/23 01:18:24;;;;;;;25.37;23.43;;;;;;;;;;5097608;28;20439;-79
2023/06/23 01:20:52;;;;;;;52.07;25.40;;;;;;;;;;5097455;28;20516;-80
2023/06/23 01:23:29;;;;;;;27.40;24.50;;;;;;;;;;5098348;28;20433;-79
2023/06/23 01:25:57;;;;;;;24.63;22.63;;;;;;;;;;5097322;28;20415;-79
2023/06/23 01:28:33;;;;;;;24.77;22.87;;;;;;;;;;5097686;28;20773;-79
2023/06/23 01:31:01;;;;;;;24.80;23.10;;;;;;;;;;5097466;28;20476;-80
2023/06/23 01:33:37;;;;;;;25.53;23.40;;;;;;;;;;5097437;28;20479;-79
2023/06/23 01:36:07;;;;;;;26.43;23.13;;;;;;;;;;5096430;28;20517;-78
2023/06/23 01:38:36;;;;;;;24.23;22.27;;;;;;;;;;5097420;28;20992;-80
2023/06/23 01:41:04;;;;;;;24.53;22.20;;;;;;;;;;5097286;28;20515;-79
2023/06/23 01:43:33;;;;;;;23.50;21.90;;;;;;;;;;5097914;28;20426;-79
2023/06/23 01:46:03;;;;;;;24.97;22.90;;;;;;;;;;5097104;28;20422;-80
2023/06/23 01:48:31;;;;;;;24.70;22.23;;;;;;;;;;5098808;28;20764;-78
2023/06/23 01:50:59;;;;;;;21.33;19.73;;;;;;;;;;5096490;28;20459;-80
2023/06/23 01:53:26;;;;;;;26.13;22.00;;;;;;;;;;5097369;28;20437;-79
2023/06/23 01:55:54;;;;;;;20.97;19.70;;;;;;;;;;5096890;28;20973;-79
2023/06/23 01:58:21;;;;;;;21.60;20.00;;;;;;;;;;5097221;28;20514;-80
2023/06/23 02:00:50;;;;;;;24.33;19.20;;;;;;;;;;5097648;28;20455;-79
2023/06/23 02:03:18;;;;;;;19.60;18.50;;;;;;;;;;5096914;28;20884;-82
2023/06/23 02:05:46;;;;;;;19.70;18.30;;;;;;;;;;5096313;28;20514;-82
2023/06/23 02:08:14;;;;;;;17.80;16.90;;;;;;;;;;5096436;28;20518;-80
2023/06/23 02:10:41;;;;;;;20.33;18.20;;;;;;;;;;5096050;28;20996;-79
2023/06/23 02:13:08;;;;;;;17.77;16.77;;;;;;;;;;5097043;28;20912;-78
2023/06/23 02:15:36;;;;;;;19.67;17.30;;;;;;;;;;5095705;28;21006;-80
2023/06/23 02:18:05;;;;;;;18.93;17.73;;;;;;;;;;5096692;28;20472;-78
2023/06/23 02:20:32;;;;;;;20.33;18.43;;;;;;;;;;5096260;28;20443;-80
2023/06/23 02:22:59;;;;;;;22.00;20.30;;;;;;;;;;5095523;28;20439;-80
2023/06/23 02:25:26;;;;;;;23.00;21.27;;;;;;;;;;5095886;28;20811;-80
2023/06/23 02:27:54;;;;;;;21.20;20.00;;;;;;;;;;5096364;28;20576;-80
2023/06/23 02:30:21;;;;;;;22.07;20.67;;;;;;;;;;5095561;28;20477;-80
2023/06/23 02:32:48;;;;;;;24.30;22.37;;;;;;;;;;5095964;28;21011;-79
2023/06/23 02:35:17;;;;;;;23.70;21.93;;;;;;;;;;5096374;28;20441;-80
2023/06/23 02:37:47;;;;;;;24.70;22.90;;;;;;;;;;5095698;28;20449;-78
2023/06/23 02:40:16;;;;;;;30.20;22.67;;;;;;;;;;5094879;28;20474;-80
2023/06/23 02:42:46;;;;;;;22.50;20.90;;;;;;;;;;5095293;28;20436;-79
2023/06/23 02:45:15;;;;;;;22.73;21.00;;;;;;;;;;5095689;28;20441;-80
2023/06/23 02:47:44;;;;;;;22.77;20.90;;;;;;;;;;5095278;28;20419;-79
2023/06/23 02:50:12;;;;;;;22.20;20.33;;;;;;;;;;5095402;28;20435;-79
2023/06/23 02:52:44;;;;;;;23.80;21.73;;;;;;;;;;5095019;28;20538;-79
2023/06/23 02:55:12;;;;;;;23.77;21.87;;;;;;;;;;5095545;28;20407;-79
2023/06/23 02:57:41;;;;;;;21.70;20.30;;;;;;;;;;5094163;28;20414;-80
2023/06/23 03:00:13;;;;;;;20.17;18.70;;;;;;;;;;5095179;28;20518;-78
2023/06/23 03:02:42;;;;;;;22.20;20.90;;;;;;;;;;5094427;28;20476;-79
2023/06/23 03:05:09;;;;;;;22.50;20.87;;;;;;;;;;5095591;28;20456;-79
2023/06/23 03:07:38;;;;;;;20.00;18.70;;;;;;;;;;5094244;28;20509;-79
2023/06/23 03:10:07;;;;;;;17.13;15.90;;;;;;;;;;5095072;28;20508;-80
2023/06/23 03:12:34;;;;;;;18.00;16.47;;;;;;;;;;5095132;28;20430;-80
2023/06/23 03:15:01;;;;;;;18.33;17.13;;;;;;;;;;5095255;28;20425;-79
2023/06/23 03:17:30;;;;;;;18.97;16.93;;;;;;;;;;5094479;28;21232;-80
2023/06/23 03:20:02;;;;;;;25.60;17.47;;;;;;;;;;5095323;28;20459;-79
2023/06/23 03:22:32;;;;;;;19.20;17.63;;;;;;;;;;5094979;28;20407;-79
2023/06/23 03:25:02;;;;;;;20.23;18.10;;;;;;;;;;5095032;28;20845;-79
2023/06/23 03:27:31;;;;;;;23.90;21.77;;;;;;;;;;5094367;28;20442;-80
2023/06/23 03:30:02;;;;;;;21.00;18.97;;;;;;;;;;5093745;28;21280;-80
2023/06/23 03:32:33;;;;;;;19.30;17.37;;;;;;;;;;5094264;28;20457;-80
2023/06/23 03:35:03;;;;;;;20.57;18.67;;;;;;;;;;5094922;28;20414;-80
2023/06/23 03:37:32;;;;;;;19.83;18.53;;;;;;;;;;5095006;28;20778;-78
2023/06/23 03:40:01;;;;;;;20.40;18.80;;;;;;;;;;5099507;28;20533;-79
2023/06/23 03:42:28;;;;;;;18.77;17.53;;;;;;;;;;5099433;28;20436;-79
2023/06/23 03:44:57;;;;;;;21.60;19.70;;;;;;;;;;5099312;28;20406;-80
2023/06/23 03:47:26;;;;;;;19.30;18.10;;;;;;;;;;5097860;28;20997;-80
2023/06/23 03:49:56;;;;;;;21.10;19.27;;;;;;;;;;5097970;28;20477;-79
2023/06/23 03:52:24;;;;;;;19.77;18.47;;;;;;;;;;5098363;28;20428;-80
2023/06/23 03:54:53;;;;;;;21.30;19.73;;;;;;;;;;5098731;28;20420;-79
2023/06/23 03:57:22;;;;;;;23.03;21.00;;;;;;;;;;5098915;28;20426;-80
2023/06/23 03:59:49;;;;;;;22.87;21.07;;;;;;;;;;5099148;28;20969;-79
2023/06/23 04:02:20;;;;;;;23.63;21.37;;;;;;;;;;5098916;28;20452;-80
2023/06/23 04:04:48;;;;;;;26.20;22.60;;;;;;;;;;5099185;28;20407;-79
2023/06/23 04:07:15;;;;;;;23.63;21.37;;;;;;;;;;5098253;28;20415;-79
2023/06/23 04:09:44;;;;;;;24.40;22.20;;;;;;;;;;5098838;28;20821;-80
2023/06/23 04:12:12;;;;;;;25.83;23.10;;;;;;;;;;5098530;28;20444;-79
2023/06/23 04:14:39;;;;;;;26.43;23.83;;;;;;;;;;5098810;28;20475;-79
2023/06/23 04:17:08;;;;;;;25.03;23.13;;;;;;;;;;5099197;28;20472;-79
2023/06/23 04:19:37;;;;;;;34.83;24.90;;;;;;;;;;5098348;28;20466;-79
2023/06/23 04:22:05;;;;;;;33.83;24.57;;;;;;;;;;5114894;28;20493;-78
2023/06/23 04:24:33;;;;;;;25.60;22.90;;;;;;;;;;5120003;28;20936;-77
2023/06/23 04:27:02;;;;;;;24.33;21.77;;;;;;;;;;5119259;28;20428;-78
2023/06/23 04:29:30;;;;;;;36.77;25.00;;;;;;;;;;5104887;28;20425;-79
2023/06/23 04:31:58;;;;;;;27.17;24.53;;;;;;;;;;5098332;28;20443;-80
2023/06/23 04:34:25;;;;;;;22.83;20.90;;;;;;;;;;5098984;28;20495;-79
2023/06/23 04:37:02;;;;;;;26.80;24.10;;;;;;;;;;5098142;28;20803;-79
2023/06/23 04:39:31;;;;;;;27.60;24.83;;;;;;;;;;5097777;28;20491;-79
2023/06/23 04:42:01;;;;;;;27.50;23.37;;;;;;;;;;5097659;28;20468;-80
2023/06/23 04:44:29;;;;;;;38.03;25.90;;;;;;;;;;5098640;28;20432;-79
2023/06/23 04:46:59;;;;;;;28.80;24.83;;;;;;;;;;5097378;28;20438;-79
2023/06/23 04:49:28;;;;;;;40.67;27.43;;;;;;;;;;5097755;28;20520;-79
2023/06/23 04:52:00;;;;;;;25.47;22.60;;;;;;;;;;5096925;28;20476;-79
2023/06/23 04:54:28;;;;;;;23.73;21.20;;;;;;;;;;5097538;28;20780;-79
2023/06/23 04:57:01;;;;;;;24.47;22.40;;;;;;;;;;5099446;28;20431;-79
2023/06/23 04:59:29;;;;;;;31.70;25.50;;;;;;;;;;5101716;28;20470;-80
2023/06/23 05:01:56;;;;;;;24.70;22.33;;;;;;;;;;5097675;28;20443;-80
2023/06/23 05:04:24;;;;;;;44.27;26.90;;;;;;;;;;5097086;28;20506;-78
2023/06/23 05:06:52;;;;;;;26.43;23.80;;;;;;;;;;5096185;28;20964;-79
2023/06/23 05:09:22;;;;;;;23.10;20.80;;;;;;;;;;5097070;28;20505;-80
2023/06/23 05:11:50;;;;;;;26.90;24.20;;;;;;;;;;5097949;28;20476;-80
2023/06/23 05:14:18;;;;;;;26.03;23.00;;;;;;;;;;5097912;28;20431;-82
2023/06/23 05:16:46;;;;;;;26.90;24.07;;;;;;;;;;5096658;28;20507;-81
2023/06/23 05:19:13;;;;;;;22.77;20.67;;;;;;;;;;5097423;28;20499;-81
2023/06/23 05:21:42;;;;;;;25.07;22.90;;;;;;;;;;5097235;28;20465;-81
2023/06/23 05:24:10;;;;;;;44.10;24.87;;;;;;;;;;5097239;28;20996;-80
2023/06/23 05:26:41;;;;;;;26.23;23.20;;;;;;;;;;5096257;28;20902;-81
2023/06/23 05:29:09;;;;;;;27.90;24.10;;;;;;;;;;5098607;28;20429;-81
2023/06/23 05:31:37;;;;;;;26.43;23.70;;;;;;;;;;5097841;28;20525;-81
2023/06/23 05:34:06;;;;;;;23.70;21.40;;;;;;;;;;5098590;28;20509;-81
2023/06/23 05:36:34;;;;;;;31.63;21.47;;;;;;;;;;5097266;28;20597;-80
2023/06/23 05:39:01;;;;;;;24.13;22.13;;;;;;;;;;5096269;28;20488;-81
2023/06/23 05:41:28;;;;;;;24.73;22.57;;;;;;;;;;5096735;28;20554;-81
2023/06/23 05:43:57;;;;;;;20.20;18.70;;;;;;;;;;5097472;28;20427;-81
2023/06/23 05:46:26;;;;;;;24.00;21.60;;;;;;;;;;5096756;28;20460;-81
2023/06/23 05:48:54;;;;;;;23.67;21.43;;;;;;;;;;5097070;28;20430;-81
2023/06/23 05:51:22;;;;;;;24.17;21.93;;;;;;;;;;5095573;28;20470;-80
2023/06/23 05:53:51;;;;;;;21.67;19.70;;;;;;;;;;5096171;28;20483;-80
2023/06/23 05:56:22;;;;;;;23.63;21.23;;;;;;;;;;5096632;28;20419;-81
2023/06/23 05:58:50;;;;;;;18.47;16.97;;;;;;;;;;5100342;28;20826;-81
2023/06/23 06:01:20;;;;;;;26.53;20.83;;;;;;;;;;5095506;28;20981;-81
2023/06/23 06:03:48;;;;;;;22.93;20.63;;;;;;;;;;5096549;28;20404;-81
2023/06/23 06:06:16;;;;;;;32.43;21.67;;;;;;;;;;5095119;28;20467;-81
2023/06/23 06:08:43;;;;;;;24.10;21.80;;;;;;;;;;5095686;28;20840;-80
2023/06/23 06:11:12;;;;;;;22.87;20.77;;;;;;;;;;5095305;28;20471;-80
2023/06/23 06:13:40;;;;;;;19.17;17.40;;;;;;;;;;5095695;28;20516;-78
2023/06/23 06:16:09;;;;;;;24.83;21.00;;;;;;;;;;5094216;28;20427;-78
2023/06/23 06:18:38;;;;;;;25.57;21.07;;;;;;;;;;5095114;28;20494;-79
2023/06/23 06:21:07;;;;;;;41.90;21.27;;;;;;;;;;5094622;28;20491;-77
2023/06/23 06:23:34;;;;;;;19.30;17.67;;;;;;;;;;5093859;28;20513;-77
2023/06/23 06:26:02;;;;;;;20.83;19.13;;;;;;;;;;5093797;28;20422;-79
2023/06/23 06:28:29;;;;;;;21.50;19.50;;;;;;;;;;5094467;28;20452;-79
2023/06/23 06:30:58;;;;;;;22.70;20.37;;;;;;;;;;5094104;28;20467;-78
2023/06/23 06:33:26;;;;;;;22.60;20.50;;;;;;;;;;5093974;28;20427;-78
2023/06/23 06:35:57;;;;;;;21.27;19.07;;;;;;;;;;5093965;28;20452;-78
2023/06/23 06:38:25;;;;;;;19.40;17.70;;;;;;;;;;5094090;28;20410;-78
2023/06/23 06:40:53;;;;;;;21.30;19.13;;;;;;;;;;5093548;28;20468;-78
2023/06/23 06:43:20;;;;;;;22.03;19.80;;;;;;;;;;5094315;28;20491;-79
2023/06/23 06:45:47;;;;;;;20.50;17.30;;;;;;;;;;5093901;28;20517;-78
2023/06/23 06:48:15;;;;;;;20.93;19.03;;;;;;;;;;5093884;28;20502;-79
2023/06/23 06:50:42;;;;;;;21.77;19.13;;;;;;;;;;5094042;28;20472;-80
2023/06/23 06:53:11;;;;;;;21.73;19.80;;;;;;;;;;5093125;28;20563;-78
2023/06/23 06:55:39;;;;;;;23.60;21.20;;;;;;;;;;5093416;28;20424;-78
2023/06/23 06:58:06;;;;;;;19.70;18.30;;;;;;;;;;5094253;28;20991;-78
2023/06/23 07:00:34;;;;;;;21.80;19.80;;;;;;;;;;5094560;28;20519;-79
2023/06/23 07:03:01;;;;;;;22.20;20.30;;;;;;;;;;5095591;28;20581;-78
2023/06/23 07:05:28;;;;;;;24.53;22.03;;;;;;;;;;5093825;28;20448;-78
2023/06/23 07:07:55;;;;;;;23.13;20.80;;;;;;;;;;5093915;28;20469;-84
2023/06/23 07:10:23;;;;;;;25.00;19.43;;;;;;;;;;5104442;28;20818;-78
2023/06/23 07:12:50;;;;;;;21.33;19.47;;;;;;;;;;5093890;28;20864;-77
2023/06/23 07:15:17;;;;;;;21.03;19.30;;;;;;;;;;5096556;28;20456;-81
2023/06/23 07:17:44;;;;;;;21.53;19.67;;;;;;;;;;5094311;28;20973;-79
2023/06/23 07:20:12;;;;;;;21.80;20.10;;;;;;;;;;5094690;28;20860;-79
2023/06/23 07:22:39;;;;;;;22.37;20.37;;;;;;;;;;5094518;28;20502;-80
2023/06/23 07:25:06;;;;;;;24.77;22.37;;;;;;;;;;5094375;28;20448;-81
2023/06/23 07:27:34;;;;;;;22.13;20.20;;;;;;;;;;5093651;28;20427;-81
2023/06/23 07:30:01;;;;;;;22.30;20.60;;;;;;;;;;5094162;28;20492;-79
2023/06/23 07:32:28;;;;;;;22.87;21.00;;;;;;;;;;5094798;28;20491;-81
2023/06/23 07:34:55;;;;;;;22.40;20.57;;;;;;;;;;5095183;28;20420;-80
2023/06/23 07:37:22;;;;;;;21.90;20.23;;;;;;;;;;5093725;28;20422;-80
2023/06/23 07:39:49;;;;;;;22.00;20.33;;;;;;;;;;5094028;28;21053;-80
2023/06/23 07:42:16;;;;;;;21.50;19.73;;;;;;;;;;5094835;28;20449;-79
2023/06/23 07:44:45;;;;;;;21.90;20.20;;;;;;;;;;5094235;28;20430;-80
2023/06/23 07:47:12;;;;;;;21.50;20.00;;;;;;;;;;5092751;28;20919;-80
2023/06/23 07:49:39;;;;;;;22.53;20.80;;;;;;;;;;5093680;28;20448;-79
2023/06/23 07:52:07;;;;;;;21.20;19.50;;;;;;;;;;5092825;28;20468;-79
2023/06/23 07:54:34;;;;;;;21.37;19.87;;;;;;;;;;5092667;28;20506;-79
2023/06/23 07:57:01;;;;;;;23.37;21.87;;;;;;;;;;5092874;28;20895;-80
2023/06/23 07:59:29;;;;;;;23.97;22.30;;;;;;;;;;5093393;28;20459;-79
2023/06/23 08:01:57;;;;;;;25.80;23.80;;;;;;;;;;5093373;28;20493;-80
2023/06/23 08:04:24;;;;;;;26.23;24.37;;;;;;;;;;5093863;28;20456;-80
2023/06/23 08:06:51;;;;;;;28.60;26.37;;;;;;;;;;5093117;28;20445;-80
2023/06/23 08:09:18;;;;;;;26.10;23.83;;;;;;;;;;5093426;28;20431;-80
2023/06/23 08:11:45;;;;;;;26.80;25.00;;;;;;;;;;5100507;28;20484;-86
2023/06/23 08:14:12;;;;;;;25.90;23.90;;;;;;;;;;5098296;28;20437;-84
2023/06/23 08:16:39;;;;;;;24.73;22.93;;;;;;;;;;5097074;28;20455;-84
2023/06/23 08:19:07;;;;;;;25.47;23.67;;;;;;;;;;5099541;28;20433;-81
2023/06/23 08:21:35;;;;;;;27.37;25.17;;;;;;;;;;5094238;28;20496;-79
2023/06/23 08:24:02;;;;;;;27.03;24.90;;;;;;;;;;5096110;28;20462;-79
2023/06/23 08:26:29;;;;;;;26.40;24.43;;;;;;;;;;5097469;28;20452;-81
2023/06/23 08:28:56;;;;;;;26.80;24.77;;;;;;;;;;5097309;28;20486;-79
2023/06/23 08:31:23;;;;;;;27.10;24.90;;;;;;;;;;5098416;28;20447;-80
2023/06/23 08:33:50;;;;;;;26.63;24.40;;;;;;;;;;5097684;28;20964;-80
2023/06/23 08:36:18;;;;;;;26.53;24.57;;;;;;;;;;5097384;28;20461;-79
2023/06/23 08:38:45;;;;;;;26.00;24.00;;;;;;;;;;5097653;28;20975;-80
2023/06/23 08:41:13;;;;;;;23.47;21.77;;;;;;;;;;5097696;28;20492;-79
2023/06/23 08:43:44;;;;;;;26.07;24.20;;;;;;;;;;5096606;28;20473;-79
2023/06/23 08:46:14;;;;;;;26.10;23.80;;;;;;;;;;5096419;28;20412;-80
2023/06/23 08:48:41;;;;;;;26.37;24.30;;;;;;;;;;5096462;28;20516;-79
2023/06/23 08:51:08;;;;;;;29.30;26.70;;;;;;;;;;5096778;28;20499;-79
2023/06/23 08:53:37;;;;;;;28.17;25.87;;;;;;;;;;5096260;28;20519;-79
2023/06/23 08:56:04;;;;;;;27.57;25.37;;;;;;;;;;5096893;28;20969;-79
2023/06/23 08:58:31;;;;;;;27.40;25.30;;;;;;;;;;5098360;28;20415;-79
2023/06/23 09:00:58;;;;;;;25.90;23.90;;;;;;;;;;5097305;28;20476;-79
2023/06/23 09:03:25;;;;;;;27.83;25.70;;;;;;;;;;5097715;28;20465;-80
2023/06/23 09:05:52;;;;;;;27.73;25.53;;;;;;;;;;5097374;28;20490;-81
2023/06/23 09:08:20;;;;;;;29.50;27.00;;;;;;;;;;5098238;28;20451;-79
2023/06/23 09:10:49;;;;;;;28.40;26.30;;;;;;;;;;5096731;28;20884;-79
2023/06/23 09:13:20;;;;;;;29.30;26.80;;;;;;;;;;5095876;28;20519;-79
2023/06/23 09:15:48;;;;;;;28.37;25.83;;;;;;;;;;5095680;28;20463;-79
2023/06/23 09:18:16;;;;;;;27.73;25.53;;;;;;;;;;5097506;28;20490;-80
2023/06/23 09:20:44;;;;;;;28.47;26.27;;;;;;;;;;5098344;28;20459;-80
2023/06/23 09:23:13;;;;;;;28.70;26.70;;;;;;;;;;5098237;28;20445;-79
2023/06/23 09:25:42;;;;;;;29.27;26.77;;;;;;;;;;5095103;28;20415;-79
2023/06/23 09:28:21;;;;;;;29.17;26.87;;;;;;;;;;5095529;28;20514;-80
2023/06/23 09:30:48;;;;;;;31.17;28.50;;;;;;;;;;5095240;28;20522;-79
2023/06/23 09:33:15;;;;;;;29.20;26.77;;;;;;;;;;5095092;28;20485;-80
2023/06/23 09:35:45;;;;;;;32.27;29.47;;;;;;;;;;5094089;28;20439;-79
2023/06/23 09:38:12;;;;;;;30.20;27.83;;;;;;;;;;5099672;28;20506;-80
2023/06/23 09:40:39;;;;;;;30.37;27.50;;;;;;;;;;5101669;28;21250;-79
2023/06/23 09:43:06;;;;;;;30.03;27.33;;;;;;;;;;5101146;28;20473;-80
2023/06/23 09:45:35;;;;;;;29.30;26.93;;;;;;;;;;5102421;28;20461;-80
2023/06/23 09:48:02;;;;;;;30.93;28.47;;;;;;;;;;5097596;28;20824;-79
2023/06/23 09:50:29;;;;;;;29.93;27.17;;;;;;;;;;5094596;28;20795;-79
2023/06/23 09:53:05;;;;;;;28.57;26.47;;;;;;;;;;5094964;28;20505;-77
2023/06/23 09:55:33;;;;;;;28.73;26.40;;;;;;;;;;5100939;28;20443;-83
2023/06/23 09:58:00;;;;;;;26.53;24.33;;;;;;;;;;5095796;28;20538;-80
2023/06/23 10:00:33;;;;;;;27.87;25.57;;;;;;;;;;5096479;28;20463;-80
2023/06/23 10:03:02;;;;;;;25.67;23.80;;;;;;;;;;5097219;28;20408;-78
2023/06/23 10:05:34;;;;;;;24.40;22.70;;;;;;;;;;5095178;28;20480;-79
2023/06/23 10:08:09;;;;;;;25.97;24.03;;;;;;;;;;5095284;28;20433;-78
2023/06/23 10:10:42;;;;;;;23.20;21.80;;;;;;;;;;5094177;28;20488;-79
2023/06/23 10:13:09;;;;;;;23.80;22.20;;;;;;;;;;5094760;28;20433;-78
2023/06/23 10:15:37;;;;;;;24.00;22.47;;;;;;;;;;5093800;28;20459;-78
2023/06/23 10:18:05;;;;;;;23.77;22.07;;;;;;;;;;5094384;28;20491;-78
2023/06/23 10:20:32;;;;;;;21.93;20.53;;;;;;;;;;5094133;28;20462;-78
2023/06/23 10:22:59;;;;;;;20.90;19.60;;;;;;;;;;5093998;28;20502;-77
2023/06/23 10:25:27;;;;;;;22.90;21.20;;;;;;;;;;5093922;28;20912;-78
2023/06/23 10:27:56;;;;;;;21.60;19.97;;;;;;;;;;5093167;28;20469;-79
2023/06/23 10:30:23;;;;;;;22.30;20.80;;;;;;;;;;5093636;28;20949;-79
2023/06/23 10:32:53;;;;;;;19.70;18.50;;;;;;;;;;5094134;28;20480;-79
2023/06/23 10:35:23;;;;;;;23.13;21.53;;;;;;;;;;5094138;28;20453;-78
2023/06/23 10:37:50;;;;;;;22.10;20.70;;;;;;;;;;5094346;28;20513;-80
2023/06/23 10:40:19;;;;;;;22.30;20.63;;;;;;;;;;5095558;28;20451;-80
2023/06/23 10:42:47;;;;;;;22.80;21.10;;;;;;;;;;5095373;28;20428;-79
2023/06/23 10:45:14;;;;;;;21.47;19.73;;;;;;;;;;5095652;28;20815;-79
2023/06/23 10:47:41;;;;;;;22.77;20.73;;;;;;;;;;5094138;28;20449;-80
2023/06/23 10:50:09;;;;;;;20.30;19.10;;;;;;;;;;5094900;28;20439;-79
2023/06/23 10:52:37;;;;;;;20.00;18.80;;;;;;;;;;5095507;28;20431;-80
2023/06/23 10:55:30;;;;;;;21.40;20.03;;;;;;;;;;5096947;28;20526;-79
2023/06/23 10:58:08;;;;;;;22.57;21.17;;;;;;;;;;5095684;28;20456;-81
2023/06/23 11:00:35;;;;;;;21.93;20.50;;;;;;;;;;5094738;28;20500;-78
2023/06/23 11:03:02;;;;;;;21.20;19.83;;;;;;;;;;5094615;28;20498;-78
2023/06/23 11:05:29;;;;;;;21.23;19.77;;;;;;;;;;5095238;28;20452;-79
2023/06/23 11:08:04;;;;;;;21.17;19.83;;;;;;;;;;5095162;28;20498;-82
2023/06/23 11:10:47;;;;;;;20.77;19.50;;;;;;;;;;5097794;28;20452;-82
2023/06/23 11:13:15;;;;;;;21.60;19.83;;;;;;;;;;5097522;28;20827;-84
2023/06/23 11:15:42;;;;;;;21.10;19.80;;;;;;;;;;5095295;28;20449;-80
2023/06/23 11:18:14;;;;;;;19.20;18.07;;;;;;;;;;5095827;28;20404;-80
2023/06/23 11:20:42;;;;;;;21.60;19.97;;;;;;;;;;5095695;28;20483;-83
2023/06/23 11:23:11;;;;;;;19.90;18.60;;;;;;;;;;5096336;28;20795;-81
2023/06/23 11:25:39;;;;;;;18.90;17.90;;;;;;;;;;5098034;28;20447;-80
2023/06/23 11:28:24;;;;;;;19.90;18.60;;;;;;;;;;5098478;28;20458;-81
2023/06/23 11:30:54;;;;;;;19.03;17.80;;;;;;;;;;5094098;28;20492;-81
2023/06/23 11:33:28;;;;;;;18.00;16.87;;;;;;;;;;5095529;28;20426;-81
2023/06/23 11:35:56;;;;;;;18.00;16.87;;;;;;;;;;5094229;28;20510;-82
2023/06/23 11:38:24;;;;;;;16.97;15.97;;;;;;;;;;5094765;28;20481;-82
2023/06/23 11:40:52;;;;;;;17.67;16.70;;;;;;;;;;5093815;28;20980;-83
2023/06/23 11:43:19;;;;;;;16.30;15.40;;;;;;;;;;5094407;28;20760;-82
2023/06/23 11:45:48;;;;;;;14.80;14.00;;;;;;;;;;5094722;28;20434;-86
2023/06/23 11:48:15;;;;;;;16.40;15.50;;;;;;;;;;5094414;28;20820;-82
2023/06/23 11:50:42;;;;;;;15.00;14.10;;;;;;;;;;5096202;28;20439;-85
2023/06/23 11:53:09;;;;;;;14.40;13.50;;;;;;;;;;5094779;28;20514;-83
2023/06/23 11:55:38;;;;;;;16.83;15.77;;;;;;;;;;5095321;28;20419;-86
2023/06/23 11:58:05;;;;;;;15.00;14.10;;;;;;;;;;5096635;28;20833;-84
2023/06/23 12:00:32;;;;;;;15.23;14.33;;;;;;;;;;5098172;28;20453;-80
2023/06/23 12:02:59;;;;;;;14.93;14.10;;;;;;;;;;5097584;28;20456;-80
2023/06/23 12:05:27;;;;;;;14.30;13.60;;;;;;;;;;5097896;28;20509;-81
2023/06/23 12:07:55;;;;;;;13.10;12.40;;;;;;;;;;5097298;28;20435;-79
2023/06/23 12:10:24;;;;;;;12.60;11.97;;;;;;;;;;5097271;28;20439;-78
2023/06/23 12:12:53;;;;;;;13.47;12.70;;;;;;;;;;5096176;28;20473;-78
2023/06/23 12:15:22;;;;;;;14.70;13.90;;;;;;;;;;5096348;28;20494;-79
2023/06/23 12:17:49;;;;;;;13.03;12.23;;;;;;;;;;5095247;28;20529;-78
2023/06/23 12:20:19;;;;;;;11.90;11.20;;;;;;;;;;5096265;28;20465;-79
2023/06/23 12:22:49;;;;;;;11.33;10.80;;;;;;;;;;5097387;28;20511;-79
2023/06/23 12:25:16;;;;;;;12.60;12.00;;;;;;;;;;5097637;28;20524;-78
2023/06/23 12:27:52;;;;;;;12.43;11.73;;;;;;;;;;5097337;28;20445;-79
2023/06/23 12:30:20;;;;;;;11.43;10.63;;;;;;;;;;5084429;28;20963;-79
2023/06/23 12:32:47;;;;;;;11.13;10.53;;;;;;;;;;5078427;28;20442;-77
2023/06/23 12:35:16;;;;;;;11.57;10.97;;;;;;;;;;5077038;28;20449;-78
2023/06/23 12:37:47;;;;;;;12.23;11.63;;;;;;;;;;5075705;28;20519;-77
2023/06/23 12:40:29;;;;;;;12.40;11.70;;;;;;;;;;5076409;28;20546;-77
2023/06/23 12:42:58;;;;;;;12.13;11.43;;;;;;;;;;5075770;28;20550;-77
2023/06/23 12:45:25;;;;;;;12.50;11.70;;;;;;;;;;5076343;28;20465;-77
2023/06/23 12:47:52;;;;;;;12.33;11.27;;;;;;;;;;5076128;28;20824;-78
2023/06/23 12:50:26;;;;;;;15.47;14.60;;;;;;;;;;5076417;28;20495;-77
2023/06/23 12:52:53;;;;;;;19.10;18.00;;;;;;;;;;5076172;28;20517;-77
2023/06/23 12:55:20;;;;;;;19.23;18.17;;;;;;;;;;5076047;28;20437;-79
2023/06/23 12:57:49;;;;;;;18.23;17.33;;;;;;;;;;5075344;28;20511;-77
2023/06/23 13:00:19;;;;;;;18.17;17.27;;;;;;;;;;5076077;28;20448;-78
2023/06/23 13:02:46;;;;;;;18.13;17.13;;;;;;;;;;5076535;28;20485;-78
2023/06/23 13:05:14;;;;;;;18.90;18.00;;;;;;;;;;5076868;28;20446;-78
2023/06/23 13:07:42;;;;;;;21.50;20.30;;;;;;;;;;5076418;28;20450;-79
2023/06/23 13:10:10;;;;;;;21.10;20.00;;;;;;;;;;5075445;28;20523;-78
2023/06/23 13:12:37;;;;;;;23.47;21.87;;;;;;;;;;5075570;28;20495;-76
2023/06/23 13:15:04;;;;;;;22.67;21.27;;;;;;;;;;5073918;28;20519;-76
2023/06/23 13:17:33;;;;;;;23.40;22.10;;;;;;;;;;5074530;28;20470;-78
2023/06/23 13:20:00;;;;;;;23.73;22.40;;;;;;;;;;5074519;28;20492;-78
2023/06/23 13:22:27;;;;;;;23.83;22.30;;;;;;;;;;5074968;28;20477;-77
2023/06/23 13:24:56;;;;;;;25.00;23.50;;;;;;;;;;5075205;28;20442;-75
2023/06/23 13:27:23;;;;;;;24.07;22.67;;;;;;;;;;5073316;28;20477;-75
2023/06/23 13:29:50;;;;;;;24.27;22.97;;;;;;;;;;5074631;28;20434;-78
2023/06/23 13:32:18;;;;;;;25.13;23.53;;;;;;;;;;5074664;28;20420;-77
2023/06/23 13:34:46;;;;;;;27.67;26.07;;;;;;;;;;5075295;28;20424;-78
2023/06/23 13:37:13;;;;;;;26.10;24.70;;;;;;;;;;5074696;28;20503;-78
2023/06/23 13:39:40;;;;;;;28.17;26.43;;;;;;;;;;5074936;28;20449;-77
2023/06/23 13:42:08;;;;;;;31.47;29.57;;;;;;;;;;5078525;28;21024;-78
2023/06/23 13:44:35;;;;;;;29.40;27.63;;;;;;;;;;5094595;28;20507;-77
2023/06/23 13:47:02;;;;;;;29.07;27.37;;;;;;;;;;5093879;28;20445;-78
2023/06/23 13:49:29;;;;;;;29.73;28.03;;;;;;;;;;5094416;28;20456;-79
2023/06/23 13:51:58;;;;;;;35.63;33.57;;;;;;;;;;5094670;28;20475;-87
2023/06/23 13:54:27;;;;;;;30.37;28.63;;;;;;;;;;5094564;28;20431;-77
2023/06/23 13:56:54;;;;;;;29.43;27.70;;;;;;;;;;5093715;28;20511;-77
2023/06/23 13:59:21;;;;;;;29.93;28.23;;;;;;;;;;5094217;28;20441;-78
2023/06/23 14:01:50;;;;;;;31.20;29.40;;;;;;;;;;5093953;28;20848;-78
2023/06/23 14:04:18;;;;;;;29.30;27.60;;;;;;;;;;5094262;28;20499;-77
2023/06/23 14:06:46;;;;;;;31.53;29.43;;;;;;;;;;5093391;28;20428;-78
2023/06/23 14:09:14;;;;;;;31.50;29.80;;;;;;;;;;5093098;28;20825;-77
2023/06/23 14:11:41;;;;;;;30.80;28.97;;;;;;;;;;5080484;28;20465;-77
2023/06/23 14:14:09;;;;;;;32.60;30.50;;;;;;;;;;5073390;28;20445;-77
2023/06/23 14:16:36;;;;;;;30.13;28.57;;;;;;;;;;5072582;28;20436;-77
2023/06/23 14:19:03;;;;;;;30.20;28.40;;;;;;;;;;5073332;28;20449;-77
2023/06/23 14:21:30;;;;;;;30.33;28.70;;;;;;;;;;5072150;28;20527;-88
2023/06/23 14:23:57;;;;;;;30.03;28.30;;;;;;;;;;5074933;28;20464;-80